createdAt,value
2017-10-23T00:00:32.647Z,84.67
2017-10-23T00:03:07.111Z,85.02
2017-10-23T00:05:41.636Z,84.55
2017-10-23T00:08:16.252Z,84.62
2017-10-23T00:10:50.903Z,85.02
2017-10-23T00:13:25.379Z,85.76
2017-10-23T00:15:59.860Z,86.29
2017-10-23T00:18:34.428Z,86.03
2017-10-23T00:21:09.084Z,85.58
2017-10-23T00:23:43.607Z,85.58
2017-10-23T00:26:18.019Z,85.50
2017-10-23T00:28:53.211Z,84.89
2017-10-23T00:31:28.278Z,84.43
2017-10-23T00:34:02.910Z,84.91
2017-10-23T00:36:37.641Z,84.94
2017-10-23T00:39:12.958Z,85.09
2017-10-23T00:41:47.461Z,84.21
2017-10-23T00:44:21.888Z,84.34
2017-10-23T00:46:56.882Z,84.94
2017-10-23T00:49:31.375Z,84.00
2017-10-23T00:52:06.485Z,83.77
2017-10-23T00:54:40.858Z,83.57
2017-10-23T00:57:15.347Z,82.86
2017-10-23T00:59:49.590Z,83.07
2017-10-23T01:02:25.000Z,83.02
2017-10-23T01:04:59.527Z,82.90
2017-10-23T01:07:34.006Z,82.63
2017-10-23T01:10:11.455Z,82.94
2017-10-23T01:12:45.884Z,83.02
2017-10-23T01:15:20.696Z,82.89
2017-10-23T01:17:55.295Z,82.90
2017-10-23T01:20:29.724Z,82.74
2017-10-23T01:23:03.678Z,82.91
2017-10-23T01:25:38.428Z,83.02
2017-10-23T01:28:15.387Z,83.14
2017-10-23T01:30:51.192Z,83.75
2017-10-23T01:33:26.119Z,83.75
2017-10-23T01:36:01.738Z,83.83
2017-10-23T01:38:39.055Z,84.35
2017-10-23T01:41:13.140Z,84.53
2017-10-23T01:43:48.299Z,84.70
2017-10-23T01:46:22.866Z,84.72
2017-10-23T01:48:56.999Z,84.71
2017-10-23T01:51:31.779Z,84.43
2017-10-23T01:54:06.337Z,84.74
2017-10-23T01:56:40.795Z,84.07
2017-10-23T01:59:14.922Z,83.60
2017-10-23T02:01:49.519Z,84.28
2017-10-23T02:04:24.160Z,84.39
2017-10-23T02:06:58.912Z,83.78
2017-10-23T02:09:33.240Z,83.38
2017-10-23T02:12:07.763Z,83.19
2017-10-23T02:14:42.426Z,81.81
2017-10-23T02:17:17.116Z,82.25
2017-10-23T02:19:51.563Z,82.14
2017-10-23T02:22:25.988Z,82.27
2017-10-23T02:25:00.513Z,81.87
2017-10-23T02:27:35.052Z,81.51
2017-10-23T02:30:10.503Z,81.44
2017-10-23T02:32:45.127Z,81.76
2017-10-23T02:35:19.588Z,81.89
2017-10-23T02:37:54.043Z,81.89
2017-10-23T02:40:30.689Z,82.45
2017-10-23T02:43:05.204Z,80.69
2017-10-23T02:45:39.599Z,81.37
2017-10-23T02:48:14.108Z,81.80
2017-10-23T02:50:48.627Z,81.48
2017-10-23T02:53:23.223Z,82.46
2017-10-23T02:55:57.683Z,82.19
2017-10-23T02:58:32.098Z,81.78
2017-10-23T03:01:06.528Z,82.55
2017-10-23T03:03:41.096Z,83.00
2017-10-23T03:06:15.570Z,82.70
2017-10-23T03:08:49.803Z,83.29
2017-10-23T03:11:23.855Z,83.72
2017-10-23T03:13:59.210Z,82.84
2017-10-23T03:16:33.935Z,83.81
2017-10-23T03:19:08.380Z,84.00
2017-10-23T03:21:42.482Z,83.77
2017-10-23T03:24:16.714Z,83.18
2017-10-23T03:26:50.802Z,82.77
2017-10-23T03:29:25.027Z,83.19
2017-10-23T03:31:59.523Z,83.63
2017-10-23T03:34:34.554Z,84.29
2017-10-23T03:37:09.191Z,83.90
2017-10-23T03:39:43.507Z,82.83
2017-10-23T03:42:18.305Z,82.36
2017-10-23T03:44:52.639Z,82.46
2017-10-23T03:47:27.857Z,82.35
2017-10-23T03:50:03.046Z,80.99
2017-10-23T03:52:41.612Z,81.08
2017-10-23T03:55:17.523Z,81.66
2017-10-23T03:57:51.550Z,80.85
2017-10-23T04:00:25.722Z,80.23
2017-10-23T04:02:59.774Z,81.29
2017-10-23T04:05:34.111Z,80.43
2017-10-23T04:08:08.159Z,81.01
2017-10-23T04:10:42.583Z,81.05
2017-10-23T04:13:16.760Z,80.59
2017-10-23T04:15:50.835Z,80.12
2017-10-23T04:18:25.186Z,80.51
2017-10-23T04:20:59.566Z,79.53
2017-10-23T04:23:33.540Z,79.68
2017-10-23T04:26:07.685Z,80.58
2017-10-23T04:28:44.058Z,80.78
2017-10-23T04:31:18.296Z,79.86
2017-10-23T04:33:52.471Z,80.78
2017-10-23T04:36:26.502Z,79.62
2017-10-23T04:39:00.631Z,80.01
2017-10-23T04:41:34.799Z,79.96
2017-10-23T04:44:09.051Z,80.26
2017-10-23T04:46:43.472Z,79.37
2017-10-23T04:49:19.047Z,79.06
2017-10-23T04:51:53.650Z,78.67
2017-10-23T04:54:27.903Z,78.91
2017-10-23T04:57:01.993Z,79.93
2017-10-23T04:59:36.239Z,78.66
2017-10-23T05:02:10.860Z,78.02
2017-10-23T05:04:45.057Z,78.53
2017-10-23T05:07:19.129Z,77.92
2017-10-23T05:09:53.256Z,78.31
2017-10-23T05:12:27.360Z,77.84
2017-10-23T05:15:01.537Z,77.79
2017-10-23T05:17:36.002Z,77.87
2017-10-23T05:20:15.960Z,77.96
2017-10-23T05:22:51.409Z,77.73
2017-10-23T05:25:25.470Z,78.24
2017-10-23T05:27:59.567Z,77.88
2017-10-23T05:30:34.409Z,78.06
2017-10-23T05:33:08.750Z,78.58
2017-10-23T05:35:43.213Z,78.31
2017-10-23T05:38:17.505Z,78.24
2017-10-23T05:40:51.604Z,78.71
2017-10-23T05:43:26.202Z,79.05
2017-10-23T05:46:00.291Z,78.83
2017-10-23T05:48:35.502Z,78.54
2017-10-23T05:51:10.268Z,78.45
2017-10-23T05:53:45.315Z,78.73
2017-10-23T05:56:19.492Z,78.80
2017-10-23T05:58:54.063Z,78.71
2017-10-23T06:01:28.487Z,78.98
2017-10-23T06:04:02.583Z,79.54
2017-10-23T06:06:36.696Z,79.10
2017-10-23T06:09:10.952Z,79.25
2017-10-23T06:11:45.400Z,79.29
2017-10-23T06:14:19.396Z,78.97
2017-10-23T06:16:53.896Z,79.17
2017-10-23T06:19:27.832Z,79.29
2017-10-23T06:22:02.149Z,79.15
2017-10-23T06:24:36.060Z,79.10
2017-10-23T06:27:10.278Z,79.17
2017-10-23T06:29:44.228Z,79.21
2017-10-23T06:32:18.214Z,79.37
2017-10-23T06:34:52.648Z,79.66
2017-10-23T06:37:26.838Z,79.08
2017-10-23T06:40:00.925Z,79.36
2017-10-23T06:42:35.062Z,79.09
2017-10-23T06:45:13.397Z,79.67
2017-10-23T06:47:47.930Z,79.36
2017-10-23T06:50:21.987Z,79.19
2017-10-23T06:52:57.068Z,79.35
2017-10-23T06:55:31.253Z,79.38
2017-10-23T06:58:05.247Z,78.72
2017-10-23T07:00:39.429Z,79.05
2017-10-23T07:03:13.473Z,79.18
2017-10-23T07:05:47.603Z,78.97
2017-10-23T07:08:21.862Z,78.21
2017-10-23T07:10:55.731Z,77.95
2017-10-23T07:13:30.530Z,78.55
2017-10-23T07:16:05.166Z,78.62
2017-10-23T07:18:39.675Z,78.19
2017-10-23T07:21:14.089Z,78.11
2017-10-23T07:23:48.248Z,78.13
2017-10-23T07:26:23.346Z,78.42
2017-10-23T07:28:57.951Z,78.63
2017-10-23T07:31:32.350Z,78.72
2017-10-23T07:34:06.866Z,78.58
2017-10-23T07:36:41.259Z,78.31
2017-10-23T07:39:15.794Z,78.69
2017-10-23T07:41:50.475Z,78.35
2017-10-23T07:44:25.082Z,78.39
2017-10-23T07:46:59.526Z,78.22
2017-10-23T07:49:34.070Z,78.35
2017-10-23T07:52:08.569Z,77.74
2017-10-23T07:54:43.188Z,78.13
2017-10-23T07:57:17.632Z,77.99
2017-10-23T07:59:52.192Z,78.05
2017-10-23T08:02:26.636Z,78.36
2017-10-23T08:05:01.951Z,78.31
2017-10-23T08:07:36.381Z,77.97
2017-10-23T08:10:14.266Z,77.85
2017-10-23T08:12:48.499Z,77.83
2017-10-23T08:15:24.739Z,78.02
2017-10-23T08:17:59.171Z,78.08
2017-10-23T08:20:33.668Z,77.88
2017-10-23T08:23:08.230Z,78.05
2017-10-23T08:25:42.729Z,78.04
2017-10-23T08:28:17.254Z,77.79
2017-10-23T08:30:51.739Z,78.26
2017-10-23T08:33:25.853Z,77.89
2017-10-23T08:36:00.387Z,77.25
2017-10-23T08:38:34.819Z,77.98
2017-10-23T08:41:09.294Z,77.96
2017-10-23T08:43:43.726Z,78.41
2017-10-23T08:46:18.214Z,78.88
2017-10-23T08:48:53.449Z,79.69
2017-10-23T08:51:27.714Z,81.44
2017-10-23T08:54:02.470Z,84.36
2017-10-23T08:56:37.091Z,86.80
2017-10-23T08:59:11.320Z,87.84
2017-10-23T09:01:45.709Z,88.27
2017-10-23T09:04:20.650Z,88.68
2017-10-23T09:06:54.985Z,89.11
2017-10-23T09:09:29.346Z,89.53
2017-10-23T09:12:04.332Z,90.71
2017-10-23T09:14:39.787Z,92.20
2017-10-23T09:17:14.344Z,92.08
2017-10-23T09:19:48.879Z,92.43
2017-10-23T09:22:24.120Z,91.85
2017-10-23T09:24:58.661Z,92.29
2017-10-23T09:27:33.423Z,91.72
2017-10-23T09:30:08.068Z,91.54
2017-10-23T09:32:42.637Z,91.46
2017-10-23T09:35:17.119Z,88.33
2017-10-23T09:37:51.523Z,88.57
2017-10-23T09:40:25.943Z,89.90
2017-10-23T09:43:00.453Z,89.38
2017-10-23T09:45:34.914Z,89.46
2017-10-23T09:48:09.678Z,90.53
2017-10-23T09:50:44.207Z,89.51
2017-10-23T09:53:18.602Z,89.95
2017-10-23T09:55:52.974Z,90.08
2017-10-23T09:58:28.026Z,91.31
2017-10-23T10:01:02.288Z,91.27
2017-10-23T10:03:37.447Z,90.80
2017-10-23T10:06:11.999Z,91.00
2017-10-23T10:08:46.540Z,91.24
2017-10-23T10:11:22.370Z,91.60
2017-10-23T10:13:57.957Z,91.76
2017-10-23T10:16:32.342Z,92.53
2017-10-23T10:19:06.959Z,92.97
2017-10-23T10:21:41.454Z,92.45
2017-10-23T10:24:16.638Z,92.35
2017-10-23T10:26:51.270Z,92.17
2017-10-23T10:29:25.839Z,92.19
2017-10-23T10:32:00.427Z,92.47
2017-10-23T10:34:35.023Z,92.94
2017-10-23T10:37:09.511Z,92.62
2017-10-23T10:39:44.062Z,92.65
2017-10-23T10:42:20.078Z,92.30
2017-10-23T10:44:54.613Z,92.47
2017-10-23T10:47:29.307Z,92.49
2017-10-23T10:50:03.857Z,93.11
2017-10-23T10:52:38.372Z,92.97
2017-10-23T10:55:12.798Z,92.81
2017-10-23T10:57:47.360Z,91.92
2017-10-23T11:00:21.887Z,91.85
2017-10-23T11:02:56.401Z,92.50
2017-10-23T11:05:30.878Z,91.44
2017-10-23T11:08:05.126Z,91.69
2017-10-23T11:10:40.128Z,91.72
2017-10-23T11:13:14.598Z,91.09
2017-10-23T11:15:49.577Z,90.54
2017-10-23T11:18:23.612Z,90.87
2017-10-23T11:20:58.047Z,90.47
2017-10-23T11:23:32.583Z,90.36
2017-10-23T11:26:07.476Z,89.28
2017-10-23T11:28:41.975Z,89.63
2017-10-23T11:31:16.414Z,89.61
2017-10-23T11:33:51.094Z,89.17
2017-10-23T11:36:25.559Z,89.35
2017-10-23T11:39:00.099Z,89.02
2017-10-23T11:41:34.466Z,89.63
2017-10-23T11:44:08.938Z,89.18
2017-10-23T11:46:43.375Z,89.13
2017-10-23T11:49:17.678Z,89.24
2017-10-23T11:51:52.086Z,88.97
2017-10-23T11:54:27.634Z,88.36
2017-10-23T11:57:02.098Z,87.63
2017-10-23T11:59:36.793Z,88.50
2017-10-23T12:02:11.329Z,88.36
2017-10-23T12:04:45.880Z,88.18
2017-10-23T12:07:20.300Z,89.11
2017-10-23T12:09:54.748Z,88.30
2017-10-23T12:12:29.204Z,88.81
2017-10-23T12:15:03.490Z,87.82
2017-10-23T12:17:38.529Z,87.72
2017-10-23T12:20:13.696Z,88.14
2017-10-23T12:22:48.138Z,86.96
2017-10-23T12:25:22.581Z,86.29
2017-10-23T12:27:57.167Z,86.72
2017-10-23T12:30:32.373Z,86.89
2017-10-23T12:33:06.884Z,86.64
2017-10-23T12:35:41.264Z,87.04
2017-10-23T12:38:15.870Z,87.70
2017-10-23T12:40:49.958Z,86.90
2017-10-23T12:43:24.210Z,86.95
2017-10-23T12:45:58.599Z,86.96
2017-10-23T12:48:33.162Z,87.49
2017-10-23T12:51:07.738Z,86.68
2017-10-23T12:53:42.252Z,87.74
2017-10-23T12:56:16.754Z,87.69
2017-10-23T12:58:51.254Z,87.16
2017-10-23T13:01:26.085Z,87.54
2017-10-23T13:04:00.515Z,87.51
2017-10-23T13:06:34.898Z,87.68
2017-10-23T13:09:09.462Z,86.88
2017-10-23T13:11:44.075Z,87.19
2017-10-23T13:14:18.647Z,85.86
2017-10-23T13:16:53.167Z,86.77
2017-10-23T13:19:28.406Z,85.47
2017-10-23T13:22:03.082Z,84.83
2017-10-23T13:24:37.624Z,86.14
2017-10-23T13:27:12.187Z,85.72
2017-10-23T13:29:46.386Z,86.09
2017-10-23T13:32:20.902Z,87.40
2017-10-23T13:34:55.495Z,85.94
2017-10-23T13:37:29.870Z,86.45
2017-10-23T13:40:04.300Z,85.11
2017-10-23T13:42:38.762Z,84.47
2017-10-23T13:45:13.178Z,83.84
2017-10-23T13:47:47.707Z,82.23
2017-10-23T13:50:22.167Z,82.20
2017-10-23T13:52:56.703Z,83.19
2017-10-23T13:55:31.237Z,80.99
2017-10-23T13:58:05.746Z,81.11
2017-10-23T14:00:40.263Z,81.29
2017-10-23T14:03:14.793Z,79.68
2017-10-23T14:05:49.283Z,78.73
2017-10-23T14:08:24.444Z,79.43
2017-10-23T14:10:58.997Z,79.23
2017-10-23T14:13:33.524Z,79.30
2017-10-23T14:16:08.030Z,80.21
2017-10-23T14:18:42.578Z,79.72
2017-10-23T14:21:16.658Z,79.88
2017-10-23T14:23:50.856Z,79.92
2017-10-23T14:26:25.003Z,78.55
2017-10-23T14:28:59.267Z,79.08
2017-10-23T14:31:33.150Z,79.20
2017-10-23T14:34:07.358Z,78.72
2017-10-23T14:36:41.390Z,79.22
2017-10-23T14:39:15.660Z,78.66
2017-10-23T14:41:49.945Z,79.08
2017-10-23T14:44:23.938Z,79.15
2017-10-23T14:46:58.058Z,79.42
2017-10-23T14:49:32.194Z,79.22
2017-10-23T14:52:06.239Z,78.59
2017-10-23T14:54:40.374Z,78.55
2017-10-23T14:57:14.570Z,77.91
2017-10-23T14:59:49.399Z,79.37
2017-10-23T15:02:23.534Z,79.97
2017-10-23T15:04:57.954Z,78.65
2017-10-23T15:07:32.365Z,78.99
2017-10-23T15:10:06.994Z,77.84
2017-10-23T15:12:41.212Z,78.16
2017-10-23T15:15:15.315Z,77.20
2017-10-23T15:17:49.931Z,76.65
2017-10-23T15:20:24.139Z,75.65
2017-10-23T15:22:58.746Z,75.87
2017-10-23T15:25:33.311Z,74.38
2017-10-23T15:28:07.507Z,74.85
2017-10-23T15:30:42.140Z,75.06
2017-10-23T15:33:18.707Z,74.94
2017-10-23T15:35:53.188Z,75.16
2017-10-23T15:38:27.802Z,75.02
2017-10-23T15:41:02.227Z,74.95
2017-10-23T15:43:36.696Z,74.95
2017-10-23T15:46:11.150Z,74.73
2017-10-23T15:48:45.737Z,75.41
2017-10-23T15:51:20.243Z,74.77
2017-10-23T15:53:54.807Z,74.87
2017-10-23T15:56:29.330Z,75.66
2017-10-23T15:59:04.695Z,75.12
2017-10-23T16:01:39.652Z,74.99
2017-10-23T16:04:14.266Z,75.66
2017-10-23T16:06:48.642Z,75.29
2017-10-23T16:09:23.262Z,75.38
2017-10-23T16:11:57.802Z,74.24
2017-10-23T16:14:32.332Z,74.92
2017-10-23T16:17:06.871Z,74.76
2017-10-23T16:19:41.825Z,74.08
2017-10-23T16:22:16.244Z,74.53
2017-10-23T16:24:50.759Z,74.26
2017-10-23T16:27:25.223Z,74.84
2017-10-23T16:29:59.735Z,74.49
2017-10-23T16:32:34.186Z,74.12
2017-10-23T16:35:08.662Z,74.34
2017-10-23T16:37:43.072Z,74.90
2017-10-23T16:40:17.210Z,74.51
2017-10-23T16:42:51.679Z,74.35
2017-10-23T16:45:26.166Z,74.36
2017-10-23T16:48:00.559Z,74.45
2017-10-23T16:50:35.082Z,74.91
2017-10-23T16:53:09.520Z,74.78
2017-10-23T16:55:43.991Z,74.33
2017-10-23T16:58:18.503Z,74.78
2017-10-23T17:00:52.979Z,75.02
2017-10-23T17:03:28.116Z,74.92
2017-10-23T17:06:02.540Z,74.80
2017-10-23T17:08:37.084Z,75.26
2017-10-23T17:11:11.560Z,75.32
2017-10-23T17:13:46.101Z,75.28
2017-10-23T17:16:20.762Z,75.47
2017-10-23T17:18:55.374Z,74.94
2017-10-23T17:21:29.641Z,75.03
2017-10-23T17:24:04.186Z,75.34
2017-10-23T17:26:38.434Z,75.04
2017-10-23T17:29:13.010Z,75.26
2017-10-23T17:31:47.504Z,75.09
2017-10-23T17:34:22.155Z,75.36
2017-10-23T17:36:56.716Z,75.45
2017-10-23T17:39:31.262Z,75.63
2017-10-23T17:42:06.509Z,75.89
2017-10-23T17:44:41.067Z,75.96
2017-10-23T17:47:16.215Z,76.39
2017-10-23T17:49:50.735Z,76.74
2017-10-23T17:52:25.106Z,76.70
2017-10-23T17:54:59.714Z,76.64
2017-10-23T17:57:34.126Z,76.60
2017-10-23T18:00:08.550Z,76.84
2017-10-23T18:02:43.137Z,76.76
2017-10-23T18:05:17.626Z,76.73
2017-10-23T18:07:52.176Z,76.76
2017-10-23T18:10:26.711Z,77.06
2017-10-23T18:13:01.263Z,77.32
2017-10-23T18:15:35.767Z,77.58
2017-10-23T18:18:10.363Z,77.68
2017-10-23T18:20:44.860Z,77.37
2017-10-23T18:23:19.473Z,77.29
2017-10-23T18:25:53.974Z,77.57
2017-10-23T18:28:28.370Z,77.13
2017-10-23T18:31:02.784Z,77.11
2017-10-23T18:33:37.281Z,77.17
2017-10-23T18:36:11.677Z,77.29
2017-10-23T18:38:46.151Z,76.88
2017-10-23T18:41:20.630Z,77.17
2017-10-23T18:43:55.107Z,77.33
2017-10-23T18:46:29.514Z,77.04
2017-10-23T18:49:04.202Z,77.44
2017-10-23T18:51:38.606Z,77.41
2017-10-23T18:54:13.226Z,77.44
2017-10-23T18:56:47.615Z,77.97
2017-10-23T18:59:22.204Z,77.39
2017-10-23T19:01:56.726Z,77.27
2017-10-23T19:04:31.333Z,77.25
2017-10-23T19:07:05.503Z,77.13
2017-10-23T19:09:40.095Z,76.16
2017-10-23T19:12:14.770Z,77.00
2017-10-23T19:14:49.425Z,77.68
2017-10-23T19:17:24.487Z,78.17
2017-10-23T19:19:58.982Z,77.73
2017-10-23T19:22:33.454Z,78.16
2017-10-23T19:25:07.874Z,78.30
2017-10-23T19:27:42.378Z,78.27
2017-10-23T19:30:16.922Z,78.20
2017-10-23T19:32:51.422Z,78.49
2017-10-23T19:35:25.898Z,78.29
2017-10-23T19:38:00.422Z,78.54
2017-10-23T19:40:34.930Z,78.82
2017-10-23T19:43:09.436Z,79.11
2017-10-23T19:45:44.300Z,78.25
2017-10-23T19:48:18.830Z,78.34
2017-10-23T19:50:53.258Z,78.35
2017-10-23T19:53:27.859Z,78.60
2017-10-23T19:56:02.293Z,78.75
2017-10-23T19:58:36.762Z,78.84
2017-10-23T20:01:11.141Z,78.40
2017-10-23T20:03:45.710Z,78.67
2017-10-23T20:06:20.197Z,78.22
2017-10-23T20:08:54.589Z,78.59
2017-10-23T20:11:29.010Z,78.47
2017-10-23T20:14:03.531Z,78.69
2017-10-23T20:16:37.962Z,78.41
2017-10-23T20:19:12.463Z,78.61
2017-10-23T20:21:47.004Z,78.66
2017-10-23T20:24:21.696Z,78.65
2017-10-23T20:26:56.143Z,79.00
2017-10-23T20:29:30.693Z,79.32
2017-10-23T20:32:05.103Z,79.08
2017-10-23T20:34:39.980Z,79.08
2017-10-23T20:37:14.503Z,79.09
2017-10-23T20:39:49.101Z,79.05
2017-10-23T20:42:23.499Z,78.69
2017-10-23T20:44:58.002Z,78.96
2017-10-23T20:47:32.497Z,79.22
2017-10-23T20:50:07.406Z,79.61
2017-10-23T20:52:41.854Z,79.43
2017-10-23T20:55:16.257Z,79.22
2017-10-23T20:57:50.836Z,79.17
2017-10-23T21:00:25.249Z,79.38
2017-10-23T21:02:59.895Z,78.80
2017-10-23T21:05:34.470Z,79.04
2017-10-23T21:08:09.595Z,79.42
2017-10-23T21:10:44.103Z,79.22
2017-10-23T21:13:18.532Z,79.00
2017-10-23T21:15:53.011Z,78.89
2017-10-23T21:18:27.617Z,79.32
2017-10-23T21:21:02.273Z,79.73
2017-10-23T21:23:36.904Z,79.22
2017-10-23T21:26:11.291Z,79.70
2017-10-23T21:28:45.747Z,79.89
2017-10-23T21:31:20.248Z,79.58
2017-10-23T21:33:54.771Z,79.67
2017-10-23T21:36:29.241Z,79.81
2017-10-23T21:39:03.382Z,79.83
2017-10-23T21:41:37.991Z,80.01
2017-10-23T21:44:12.833Z,80.01
2017-10-23T21:46:58.449Z,80.59
2017-10-23T21:49:32.976Z,80.52
2017-10-23T21:52:07.471Z,80.67
2017-10-23T21:54:42.083Z,80.88
2017-10-23T21:57:16.595Z,80.39
2017-10-23T21:59:51.256Z,80.22
2017-10-23T22:02:25.671Z,80.35
2017-10-23T22:05:00.214Z,80.10
2017-10-23T22:07:34.693Z,80.20
2017-10-23T22:10:09.163Z,80.13
2017-10-23T22:12:43.578Z,79.62
2017-10-23T22:15:18.074Z,80.06
2017-10-23T22:17:52.481Z,79.94
2017-10-23T22:20:26.919Z,80.18
2017-10-23T22:23:01.515Z,79.67
2017-10-23T22:25:35.949Z,79.52
2017-10-23T22:28:10.395Z,80.13
2017-10-23T22:30:44.890Z,79.50
2017-10-23T22:33:19.518Z,79.62
2017-10-23T22:35:53.890Z,79.80
2017-10-23T22:38:28.539Z,79.72
2017-10-23T22:41:02.983Z,79.24
2017-10-23T22:43:37.550Z,79.34
2017-10-23T22:46:11.966Z,79.65
2017-10-23T22:48:46.454Z,79.53
2017-10-23T22:51:20.870Z,79.72
2017-10-23T22:53:55.301Z,79.47
2017-10-23T22:56:29.729Z,79.89
2017-10-23T22:59:04.082Z,80.04
2017-10-23T23:01:38.527Z,79.99
2017-10-23T23:04:13.043Z,80.12
2017-10-23T23:06:47.304Z,79.78
2017-10-23T23:09:21.734Z,80.14
2017-10-23T23:11:56.247Z,80.07
2017-10-23T23:14:30.840Z,79.99
2017-10-23T23:17:05.342Z,79.74
2017-10-23T23:19:39.891Z,79.62
2017-10-23T23:22:14.358Z,79.60
2017-10-23T23:24:48.697Z,79.52
2017-10-23T23:27:22.693Z,79.27
2017-10-23T23:29:57.244Z,79.26
2017-10-23T23:32:31.649Z,79.18
2017-10-23T23:35:07.702Z,79.38
2017-10-23T23:37:42.237Z,78.95
2017-10-23T23:40:16.677Z,79.03
2017-10-23T23:42:51.223Z,79.08
2017-10-23T23:45:25.678Z,79.30
2017-10-23T23:48:00.315Z,79.09
2017-10-23T23:50:34.856Z,79.02
2017-10-23T23:53:09.471Z,79.36
2017-10-23T23:55:43.877Z,79.50
2017-10-23T23:58:18.495Z,79.24
